York, South Carolina
Current Conditions -  °F | °C
As of 10:54 AM on Friday 21 Nov 2014 (Local Time) from KUZA Reporting Station
Clear Clear  
Wind Chill: 53°   Ceiling: Unl
Heat Index: 53°   Visibility: 10mi
Dew Point: 21°   Wind: 7mph
Humidity: 29%   Direction: 30°NNE
Pressure: 30.41"   Gusts: 17mph
Location:  34.99°N, 81.24°W
Report Text: KUZA 211554Z AUTO 03006G15KT 10SM CLR 12/M06 A3041 RMK AO2 SLP298 T01171061
Loading
Personal Weather Stations






























Interactive Weather Map New forecast layout! Learn more

10-Day Weather Forecast

Advertisements
Track Severe Weather on mobile